sensor_id;sensor_type;location;lat;lon;timestamp;P1;durP1;ratioP1;P2;durP2;ratioP2
21943;SDS011;11136;48.778;9.126;2023-07-02T00:01:29;2.97;;;2.58;;
21943;SDS011;11136;48.778;9.126;2023-07-02T00:03:55;5.30;;;2.28;;
21943;SDS011;11136;48.778;9.126;2023-07-02T00:06:20;3.33;;;2.40;;
21943;SDS011;11136;48.778;9.126;2023-07-02T00:08:46;5.15;;;2.33;;
21943;SDS011;11136;48.778;9.126;2023-07-02T00:11:13;4.22;;;2.60;;
21943;SDS011;11136;48.778;9.126;2023-07-02T00:13:40;3.33;;;2.38;;
21943;SDS011;11136;48.778;9.126;2023-07-02T00:16:06;4.47;;;2.13;;
21943;SDS011;11136;48.778;9.126;2023-07-02T00:18:31;3.53;;;2.50;;
21943;SDS011;11136;48.778;9.126;2023-07-02T00:20:59;6.32;;;2.53;;
21943;SDS011;11136;48.778;9.126;2023-07-02T00:23:27;4.35;;;2.20;;
21943;SDS011;11136;48.778;9.126;2023-07-02T00:25:53;3.83;;;2.30;;
21943;SDS011;11136;48.778;9.126;2023-07-02T00:28:19;4.78;;;2.28;;
21943;SDS011;11136;48.778;9.126;2023-07-02T00:30:44;4.22;;;2.53;;
21943;SDS011;11136;48.778;9.126;2023-07-02T00:33:10;3.72;;;2.42;;
21943;SDS011;11136;48.778;9.126;2023-07-02T00:35:36;4.03;;;2.72;;
21943;SDS011;11136;48.778;9.126;2023-07-02T00:38:02;5.20;;;2.90;;
21943;SDS011;11136;48.778;9.126;2023-07-02T00:40:28;2.83;;;2.17;;
21943;SDS011;11136;48.778;9.126;2023-07-02T00:42:53;3.33;;;2.15;;
21943;SDS011;11136;48.778;9.126;2023-07-02T00:45:19;3.38;;;2.47;;
21943;SDS011;11136;48.778;9.126;2023-07-02T00:47:44;8.18;;;2.85;;
21943;SDS011;11136;48.778;9.126;2023-07-02T00:50:10;2.95;;;2.08;;
21943;SDS011;11136;48.778;9.126;2023-07-02T00:52:37;5.38;;;2.80;;
21943;SDS011;11136;48.778;9.126;2023-07-02T00:55:03;5.28;;;2.65;;
21943;SDS011;11136;48.778;9.126;2023-07-02T00:57:29;2.67;;;2.10;;
21943;SDS011;11136;48.778;9.126;2023-07-02T00:59:56;3.38;;;2.47;;
21943;SDS011;11136;48.778;9.126;2023-07-02T01:02:23;2.50;;;2.30;;
21943;SDS011;11136;48.778;9.126;2023-07-02T01:04:50;2.70;;;2.20;;
21943;SDS011;11136;48.778;9.126;2023-07-02T01:07:22;3.97;;;2.20;;
21943;SDS011;11136;48.778;9.126;2023-07-02T01:09:48;4.80;;;1.98;;
21943;SDS011;11136;48.778;9.126;2023-07-02T01:12:14;3.88;;;2.17;;
21943;SDS011;11136;48.778;9.126;2023-07-02T01:14:44;4.18;;;2.40;;
21943;SDS011;11136;48.778;9.126;2023-07-02T01:17:16;2.13;;;1.73;;
21943;SDS011;11136;48.778;9.126;2023-07-02T01:19:53;2.38;;;2.17;;
21943;SDS011;11136;48.778;9.126;2023-07-02T01:22:25;3.33;;;2.08;;
21943;SDS011;11136;48.778;9.126;2023-07-02T01:24:52;2.88;;;2.20;;
21943;SDS011;11136;48.778;9.126;2023-07-02T01:27:19;2.88;;;2.33;;
21943;SDS011;11136;48.778;9.126;2023-07-02T01:29:45;4.78;;;2.33;;
21943;SDS011;11136;48.778;9.126;2023-07-02T01:32:11;3.75;;;2.15;;
21943;SDS011;11136;48.778;9.126;2023-07-02T01:34:38;4.88;;;2.63;;
21943;SDS011;11136;48.778;9.126;2023-07-02T01:37:04;4.07;;;2.03;;
21943;SDS011;11136;48.778;9.126;2023-07-02T01:39:31;4.07;;;2.20;;
21943;SDS011;11136;48.778;9.126;2023-07-02T01:42:10;5.32;;;2.70;;
21943;SDS011;11136;48.778;9.126;2023-07-02T01:44:43;3.53;;;2.20;;
21943;SDS011;11136;48.778;9.126;2023-07-02T01:47:10;2.65;;;2.17;;
21943;SDS011;11136;48.778;9.126;2023-07-02T01:49:36;5.72;;;2.35;;
21943;SDS011;11136;48.778;9.126;2023-07-02T01:52:02;3.85;;;2.35;;
21943;SDS011;11136;48.778;9.126;2023-07-02T01:54:29;6.03;;;2.50;;
21943;SDS011;11136;48.778;9.126;2023-07-02T01:56:56;3.90;;;2.70;;
21943;SDS011;11136;48.778;9.126;2023-07-02T01:59:22;7.28;;;2.80;;
21943;SDS011;11136;48.778;9.126;2023-07-02T02:01:49;10.70;;;2.50;;
21943;SDS011;11136;48.778;9.126;2023-07-02T02:04:14;4.65;;;2.30;;
21943;SDS011;11136;48.778;9.126;2023-07-02T02:06:40;3.20;;;2.47;;
21943;SDS011;11136;48.778;9.126;2023-07-02T02:09:06;3.42;;;2.35;;
21943;SDS011;11136;48.778;9.126;2023-07-02T02:11:33;4.03;;;2.30;;
21943;SDS011;11136;48.778;9.126;2023-07-02T02:13:59;6.05;;;2.40;;
21943;SDS011;11136;48.778;9.126;2023-07-02T02:16:26;2.80;;;1.98;;
21943;SDS011;11136;48.778;9.126;2023-07-02T02:18:52;5.63;;;2.22;;
21943;SDS011;11136;48.778;9.126;2023-07-02T02:21:19;4.28;;;2.28;;
21943;SDS011;11136;48.778;9.126;2023-07-02T02:23:45;9.00;;;2.17;;
21943;SDS011;11136;48.778;9.126;2023-07-02T02:26:11;3.80;;;2.50;;
21943;SDS011;11136;48.778;9.126;2023-07-02T02:28:37;5.32;;;2.15;;
21943;SDS011;11136;48.778;9.126;2023-07-02T02:31:03;2.55;;;2.25;;
21943;SDS011;11136;48.778;9.126;2023-07-02T02:33:29;4.28;;;2.22;;
21943;SDS011;11136;48.778;9.126;2023-07-02T02:35:55;3.58;;;2.08;;
21943;SDS011;11136;48.778;9.126;2023-07-02T02:38:20;6.05;;;2.22;;
21943;SDS011;11136;48.778;9.126;2023-07-02T02:40:46;4.72;;;2.10;;
21943;SDS011;11136;48.778;9.126;2023-07-02T02:43:11;2.50;;;1.90;;
21943;SDS011;11136;48.778;9.126;2023-07-02T02:45:38;3.55;;;2.35;;
21943;SDS011;11136;48.778;9.126;2023-07-02T02:48:03;3.80;;;1.92;;
21943;SDS011;11136;48.778;9.126;2023-07-02T02:50:29;5.30;;;2.47;;
21943;SDS011;11136;48.778;9.126;2023-07-02T02:52:55;4.75;;;2.55;;
21943;SDS011;11136;48.778;9.126;2023-07-02T02:55:20;5.05;;;2.40;;
21943;SDS011;11136;48.778;9.126;2023-07-02T02:57:46;5.65;;;2.47;;
21943;SDS011;11136;48.778;9.126;2023-07-02T03:00:11;4.57;;;2.22;;
21943;SDS011;11136;48.778;9.126;2023-07-02T03:02:38;2.42;;;2.22;;
21943;SDS011;11136;48.778;9.126;2023-07-02T03:05:04;7.65;;;2.42;;
21943;SDS011;11136;48.778;9.126;2023-07-02T03:07:31;2.78;;;2.10;;
21943;SDS011;11136;48.778;9.126;2023-07-02T03:09:57;6.00;;;2.50;;
21943;SDS011;11136;48.778;9.126;2023-07-02T03:12:25;3.80;;;2.10;;
21943;SDS011;11136;48.778;9.126;2023-07-02T03:14:51;6.78;;;2.42;;
21943;SDS011;11136;48.778;9.126;2023-07-02T03:17:19;4.43;;;2.70;;
21943;SDS011;11136;48.778;9.126;2023-07-02T03:19:45;4.38;;;2.42;;
21943;SDS011;11136;48.778;9.126;2023-07-02T03:22:11;5.10;;;2.70;;
21943;SDS011;11136;48.778;9.126;2023-07-02T03:24:37;3.22;;;2.30;;
21943;SDS011;11136;48.778;9.126;2023-07-02T03:27:03;5.50;;;2.63;;
21943;SDS011;11136;48.778;9.126;2023-07-02T03:29:29;5.25;;;2.50;;
21943;SDS011;11136;48.778;9.126;2023-07-02T03:31:54;5.72;;;2.63;;
21943;SDS011;11136;48.778;9.126;2023-07-02T03:34:20;2.85;;;2.50;;
21943;SDS011;11136;48.778;9.126;2023-07-02T03:36:47;6.78;;;2.65;;
21943;SDS011;11136;48.778;9.126;2023-07-02T03:39:13;6.72;;;2.80;;
21943;SDS011;11136;48.778;9.126;2023-07-02T03:41:38;5.38;;;3.38;;
21943;SDS011;11136;48.778;9.126;2023-07-02T03:44:04;4.25;;;2.90;;
21943;SDS011;11136;48.778;9.126;2023-07-02T03:46:30;7.72;;;2.88;;
21943;SDS011;11136;48.778;9.126;2023-07-02T03:48:56;4.10;;;2.80;;
21943;SDS011;11136;48.778;9.126;2023-07-02T03:51:22;5.03;;;2.85;;
21943;SDS011;11136;48.778;9.126;2023-07-02T03:53:47;5.25;;;3.03;;
21943;SDS011;11136;48.778;9.126;2023-07-02T03:56:13;7.22;;;3.25;;
21943;SDS011;11136;48.778;9.126;2023-07-02T03:58:43;5.10;;;3.17;;
21943;SDS011;11136;48.778;9.126;2023-07-02T04:01:08;4.60;;;2.70;;
21943;SDS011;11136;48.778;9.126;2023-07-02T04:03:34;8.30;;;3.03;;
21943;SDS011;11136;48.778;9.126;2023-07-02T04:06:02;12.27;;;3.97;;
21943;SDS011;11136;48.778;9.126;2023-07-02T04:08:30;15.10;;;3.13;;
21943;SDS011;11136;48.778;9.126;2023-07-02T04:10:56;5.63;;;3.28;;
21943;SDS011;11136;48.778;9.126;2023-07-02T04:13:22;5.65;;;3.05;;
21943;SDS011;11136;48.778;9.126;2023-07-02T04:15:47;5.30;;;3.00;;
21943;SDS011;11136;48.778;9.126;2023-07-02T04:18:13;5.80;;;2.88;;
21943;SDS011;11136;48.778;9.126;2023-07-02T04:20:38;6.85;;;4.03;;
21943;SDS011;11136;48.778;9.126;2023-07-02T04:23:04;6.85;;;3.67;;
21943;SDS011;11136;48.778;9.126;2023-07-02T04:25:30;4.15;;;3.22;;
21943;SDS011;11136;48.778;9.126;2023-07-02T04:27:56;7.85;;;3.65;;
21943;SDS011;11136;48.778;9.126;2023-07-02T04:30:23;10.13;;;3.40;;
21943;SDS011;11136;48.778;9.126;2023-07-02T04:32:50;6.10;;;3.58;;
21943;SDS011;11136;48.778;9.126;2023-07-02T04:35:18;8.25;;;3.20;;
21943;SDS011;11136;48.778;9.126;2023-07-02T04:37:44;6.60;;;3.75;;
21943;SDS011;11136;48.778;9.126;2023-07-02T04:40:10;7.32;;;4.05;;
21943;SDS011;11136;48.778;9.126;2023-07-02T04:42:36;7.05;;;3.65;;
21943;SDS011;11136;48.778;9.126;2023-07-02T04:45:05;6.10;;;3.35;;
21943;SDS011;11136;48.778;9.126;2023-07-02T04:47:33;7.63;;;3.65;;
21943;SDS011;11136;48.778;9.126;2023-07-02T04:50:02;5.75;;;3.55;;
21943;SDS011;11136;48.778;9.126;2023-07-02T04:52:27;10.30;;;3.47;;
21943;SDS011;11136;48.778;9.126;2023-07-02T04:54:53;9.13;;;4.18;;
21943;SDS011;11136;48.778;9.126;2023-07-02T04:57:20;6.18;;;3.47;;
21943;SDS011;11136;48.778;9.126;2023-07-02T04:59:50;6.32;;;3.13;;
21943;SDS011;11136;48.778;9.126;2023-07-02T05:02:16;7.00;;;3.83;;
21943;SDS011;11136;48.778;9.126;2023-07-02T05:04:42;5.78;;;3.03;;
21943;SDS011;11136;48.778;9.126;2023-07-02T05:07:07;11.07;;;3.25;;
21943;SDS011;11136;48.778;9.126;2023-07-02T05:09:33;5.80;;;2.97;;
21943;SDS011;11136;48.778;9.126;2023-07-02T05:11:59;4.68;;;3.10;;
21943;SDS011;11136;48.778;9.126;2023-07-02T05:14:25;4.10;;;2.92;;
21943;SDS011;11136;48.778;9.126;2023-07-02T05:16:50;5.57;;;3.72;;
21943;SDS011;11136;48.778;9.126;2023-07-02T05:19:16;4.93;;;3.20;;
21943;SDS011;11136;48.778;9.126;2023-07-02T05:21:41;4.10;;;2.80;;
21943;SDS011;11136;48.778;9.126;2023-07-02T05:24:08;8.55;;;3.58;;
21943;SDS011;11136;48.778;9.126;2023-07-02T05:26:34;5.68;;;3.38;;
21943;SDS011;11136;48.778;9.126;2023-07-02T05:29:00;8.20;;;4.22;;
21943;SDS011;11136;48.778;9.126;2023-07-02T05:31:26;8.52;;;3.22;;
21943;SDS011;11136;48.778;9.126;2023-07-02T05:33:53;5.68;;;3.58;;
21943;SDS011;11136;48.778;9.126;2023-07-02T05:36:19;7.43;;;3.53;;
21943;SDS011;11136;48.778;9.126;2023-07-02T05:38:45;5.10;;;3.42;;
21943;SDS011;11136;48.778;9.126;2023-07-02T05:41:11;6.78;;;3.08;;
21943;SDS011;11136;48.778;9.126;2023-07-02T05:43:44;6.78;;;3.63;;
21943;SDS011;11136;48.778;9.126;2023-07-02T05:46:09;6.65;;;3.88;;
21943;SDS011;11136;48.778;9.126;2023-07-02T05:48:35;7.45;;;3.85;;
21943;SDS011;11136;48.778;9.126;2023-07-02T05:51:00;9.18;;;4.20;;
21943;SDS011;11136;48.778;9.126;2023-07-02T05:53:27;9.00;;;4.80;;
21943;SDS011;11136;48.778;9.126;2023-07-02T05:55:52;7.72;;;4.53;;
21943;SDS011;11136;48.778;9.126;2023-07-02T05:58:18;9.05;;;4.72;;
21943;SDS011;11136;48.778;9.126;2023-07-02T06:00:44;9.43;;;4.70;;
21943;SDS011;11136;48.778;9.126;2023-07-02T06:03:14;9.75;;;5.38;;
21943;SDS011;11136;48.778;9.126;2023-07-02T06:08:11;9.30;;;4.68;;
21943;SDS011;11136;48.778;9.126;2023-07-02T06:10:37;8.77;;;4.95;;
21943;SDS011;11136;48.778;9.126;2023-07-02T06:13:02;15.00;;;5.20;;
21943;SDS011;11136;48.778;9.126;2023-07-02T06:15:28;10.63;;;5.45;;
21943;SDS011;11136;48.778;9.126;2023-07-02T06:17:53;12.35;;;5.63;;
21943;SDS011;11136;48.778;9.126;2023-07-02T06:20:19;12.77;;;5.57;;
21943;SDS011;11136;48.778;9.126;2023-07-02T06:22:45;10.50;;;6.05;;
21943;SDS011;11136;48.778;9.126;2023-07-02T06:25:10;10.88;;;5.72;;
21943;SDS011;11136;48.778;9.126;2023-07-02T06:27:36;14.90;;;7.22;;
21943;SDS011;11136;48.778;9.126;2023-07-02T06:30:01;18.70;;;7.13;;
21943;SDS011;11136;48.778;9.126;2023-07-02T06:32:27;14.02;;;7.00;;
21943;SDS011;11136;48.778;9.126;2023-07-02T06:34:53;18.83;;;7.72;;
21943;SDS011;11136;48.778;9.126;2023-07-02T06:37:18;14.38;;;7.82;;
21943;SDS011;11136;48.778;9.126;2023-07-02T06:39:44;15.30;;;7.72;;
21943;SDS011;11136;48.778;9.126;2023-07-02T06:42:09;12.48;;;7.45;;
21943;SDS011;11136;48.778;9.126;2023-07-02T06:44:35;16.15;;;7.47;;
21943;SDS011;11136;48.778;9.126;2023-07-02T06:47:00;16.58;;;8.40;;
21943;SDS011;11136;48.778;9.126;2023-07-02T06:49:26;15.40;;;7.55;;
21943;SDS011;11136;48.778;9.126;2023-07-02T06:51:52;13.20;;;7.50;;
21943;SDS011;11136;48.778;9.126;2023-07-02T06:54:17;15.50;;;7.70;;
21943;SDS011;11136;48.778;9.126;2023-07-02T06:56:43;14.88;;;7.30;;
21943;SDS011;11136;48.778;9.126;2023-07-02T06:59:08;16.70;;;8.00;;
21943;SDS011;11136;48.778;9.126;2023-07-02T07:01:34;19.02;;;8.05;;
21943;SDS011;11136;48.778;9.126;2023-07-02T07:04:01;15.07;;;8.18;;
21943;SDS011;11136;48.778;9.126;2023-07-02T07:06:27;13.45;;;8.55;;
21943;SDS011;11136;48.778;9.126;2023-07-02T07:08:53;17.70;;;9.38;;
21943;SDS011;11136;48.778;9.126;2023-07-02T07:11:18;13.55;;;8.38;;
21943;SDS011;11136;48.778;9.126;2023-07-02T07:13:44;21.20;;;9.38;;
21943;SDS011;11136;48.778;9.126;2023-07-02T07:16:09;17.70;;;8.75;;
21943;SDS011;11136;48.778;9.126;2023-07-02T07:18:37;19.65;;;10.45;;
21943;SDS011;11136;48.778;9.126;2023-07-02T07:21:03;17.95;;;9.55;;
21943;SDS011;11136;48.778;9.126;2023-07-02T07:23:29;21.77;;;10.45;;
21943;SDS011;11136;48.778;9.126;2023-07-02T07:25:55;20.15;;;11.20;;
21943;SDS011;11136;48.778;9.126;2023-07-02T07:28:20;28.77;;;11.02;;
21943;SDS011;11136;48.778;9.126;2023-07-02T07:30:46;21.88;;;10.60;;
21943;SDS011;11136;48.778;9.126;2023-07-02T07:33:12;21.73;;;11.52;;
21943;SDS011;11136;48.778;9.126;2023-07-02T07:35:38;20.73;;;10.05;;
21943;SDS011;11136;48.778;9.126;2023-07-02T07:38:03;22.98;;;11.35;;
21943;SDS011;11136;48.778;9.126;2023-07-02T07:40:29;26.40;;;11.95;;
21943;SDS011;11136;48.778;9.126;2023-07-02T07:42:55;23.90;;;11.15;;
21943;SDS011;11136;48.778;9.126;2023-07-02T07:45:21;21.75;;;11.10;;
21943;SDS011;11136;48.778;9.126;2023-07-02T07:47:46;20.85;;;10.93;;
21943;SDS011;11136;48.778;9.126;2023-07-02T07:50:13;20.85;;;10.73;;
21943;SDS011;11136;48.778;9.126;2023-07-02T07:52:39;21.63;;;11.18;;
21943;SDS011;11136;48.778;9.126;2023-07-02T07:55:06;19.33;;;10.60;;
21943;SDS011;11136;48.778;9.126;2023-07-02T07:57:38;25.98;;;10.77;;
21943;SDS011;11136;48.778;9.126;2023-07-02T08:00:04;23.20;;;11.07;;
21943;SDS011;11136;48.778;9.126;2023-07-02T08:02:33;19.92;;;11.68;;
21943;SDS011;11136;48.778;9.126;2023-07-02T08:04:58;18.58;;;10.65;;
21943;SDS011;11136;48.778;9.126;2023-07-02T08:07:24;21.73;;;11.07;;
21943;SDS011;11136;48.778;9.126;2023-07-02T08:09:49;20.45;;;11.52;;
21943;SDS011;11136;48.778;9.126;2023-07-02T08:12:15;20.42;;;11.13;;
21943;SDS011;11136;48.778;9.126;2023-07-02T08:14:41;22.90;;;11.45;;
21943;SDS011;11136;48.778;9.126;2023-07-02T08:17:07;21.90;;;11.77;;
21943;SDS011;11136;48.778;9.126;2023-07-02T08:19:33;20.52;;;10.80;;
21943;SDS011;11136;48.778;9.126;2023-07-02T08:21:58;22.55;;;11.68;;
21943;SDS011;11136;48.778;9.126;2023-07-02T08:24:24;20.33;;;11.57;;
21943;SDS011;11136;48.778;9.126;2023-07-02T08:26:49;23.48;;;10.40;;
21943;SDS011;11136;48.778;9.126;2023-07-02T08:29:16;19.63;;;10.80;;
21943;SDS011;11136;48.778;9.126;2023-07-02T08:31:42;24.63;;;11.63;;
21943;SDS011;11136;48.778;9.126;2023-07-02T08:34:09;23.35;;;11.68;;
21943;SDS011;11136;48.778;9.126;2023-07-02T08:36:34;23.13;;;11.85;;
21943;SDS011;11136;48.778;9.126;2023-07-02T08:39:00;20.67;;;11.18;;
21943;SDS011;11136;48.778;9.126;2023-07-02T08:41:26;21.50;;;10.35;;
21943;SDS011;11136;48.778;9.126;2023-07-02T08:43:54;20.48;;;10.32;;
21943;SDS011;11136;48.778;9.126;2023-07-02T08:46:20;19.65;;;11.00;;
21943;SDS011;11136;48.778;9.126;2023-07-02T08:48:46;20.58;;;10.13;;
21943;SDS011;11136;48.778;9.126;2023-07-02T08:51:12;20.98;;;10.48;;
21943;SDS011;11136;48.778;9.126;2023-07-02T08:53:38;16.50;;;9.75;;
21943;SDS011;11136;48.778;9.126;2023-07-02T08:56:05;19.73;;;9.73;;
21943;SDS011;11136;48.778;9.126;2023-07-02T08:58:30;17.05;;;9.15;;
21943;SDS011;11136;48.778;9.126;2023-07-02T09:03:38;18.52;;;9.27;;
21943;SDS011;11136;48.778;9.126;2023-07-02T09:06:05;20.80;;;9.50;;
21943;SDS011;11136;48.778;9.126;2023-07-02T09:08:31;18.73;;;9.07;;
21943;SDS011;11136;48.778;9.126;2023-07-02T09:13:50;16.35;;;9.48;;
21943;SDS011;11136;48.778;9.126;2023-07-02T09:16:25;18.25;;;10.10;;
21943;SDS011;11136;48.778;9.126;2023-07-02T09:19:15;18.02;;;9.88;;
21943;SDS011;11136;48.778;9.126;2023-07-02T09:21:44;18.52;;;9.05;;
21943;SDS011;11136;48.778;9.126;2023-07-02T09:24:21;17.40;;;9.13;;
21943;SDS011;11136;48.778;9.126;2023-07-02T09:26:51;17.63;;;10.35;;
21943;SDS011;11136;48.778;9.126;2023-07-02T09:29:20;13.13;;;8.77;;
21943;SDS011;11136;48.778;9.126;2023-07-02T09:31:51;16.90;;;9.27;;
21943;SDS011;11136;48.778;9.126;2023-07-02T09:34:17;20.08;;;10.00;;
21943;SDS011;11136;48.778;9.126;2023-07-02T09:36:43;16.83;;;9.13;;
21943;SDS011;11136;48.778;9.126;2023-07-02T09:39:18;14.80;;;8.68;;
21943;SDS011;11136;48.778;9.126;2023-07-02T09:41:47;16.67;;;9.55;;
21943;SDS011;11136;48.778;9.126;2023-07-02T09:44:14;17.08;;;10.18;;
21943;SDS011;11136;48.778;9.126;2023-07-02T09:46:42;16.80;;;10.02;;
21943;SDS011;11136;48.778;9.126;2023-07-02T09:49:15;16.27;;;9.60;;
21943;SDS011;11136;48.778;9.126;2023-07-02T09:51:45;24.95;;;10.23;;
21943;SDS011;11136;48.778;9.126;2023-07-02T09:54:11;14.20;;;9.23;;
21943;SDS011;11136;48.778;9.126;2023-07-02T09:56:37;14.45;;;8.90;;
21943;SDS011;11136;48.778;9.126;2023-07-02T09:59:04;14.75;;;9.25;;
21943;SDS011;11136;48.778;9.126;2023-07-02T10:01:30;14.57;;;8.65;;
21943;SDS011;11136;48.778;9.126;2023-07-02T10:03:56;17.80;;;8.88;;
21943;SDS011;11136;48.778;9.126;2023-07-02T10:06:21;17.77;;;9.05;;
21943;SDS011;11136;48.778;9.126;2023-07-02T10:08:56;18.92;;;9.93;;
21943;SDS011;11136;48.778;9.126;2023-07-02T10:11:32;18.38;;;10.43;;
21943;SDS011;11136;48.778;9.126;2023-07-02T10:14:00;20.05;;;10.23;;
21943;SDS011;11136;48.778;9.126;2023-07-02T10:16:25;14.50;;;8.65;;
21943;SDS011;11136;48.778;9.126;2023-07-02T10:19:07;20.13;;;10.13;;
21943;SDS011;11136;48.778;9.126;2023-07-02T10:21:36;22.30;;;10.45;;
21943;SDS011;11136;48.778;9.126;2023-07-02T10:26:38;19.10;;;10.82;;
21943;SDS011;11136;48.778;9.126;2023-07-02T10:29:03;18.75;;;9.98;;
21943;SDS011;11136;48.778;9.126;2023-07-02T10:31:31;21.85;;;13.48;;
21943;SDS011;11136;48.778;9.126;2023-07-02T10:33:56;17.58;;;10.40;;
21943;SDS011;11136;48.778;9.126;2023-07-02T10:36:22;23.13;;;11.93;;
21943;SDS011;11136;48.778;9.126;2023-07-02T10:38:50;17.27;;;10.20;;
21943;SDS011;11136;48.778;9.126;2023-07-02T10:41:23;18.23;;;10.63;;
21943;SDS011;11136;48.778;9.126;2023-07-02T10:44:10;22.52;;;11.38;;
21943;SDS011;11136;48.778;9.126;2023-07-02T10:46:43;18.27;;;10.35;;
21943;SDS011;11136;48.778;9.126;2023-07-02T10:49:12;16.15;;;10.50;;
21943;SDS011;11136;48.778;9.126;2023-07-02T10:51:38;21.00;;;11.18;;
21943;SDS011;11136;48.778;9.126;2023-07-02T10:54:04;17.08;;;10.73;;
21943;SDS011;11136;48.778;9.126;2023-07-02T10:56:30;18.25;;;10.45;;
21943;SDS011;11136;48.778;9.126;2023-07-02T10:58:57;16.98;;;10.68;;
21943;SDS011;11136;48.778;9.126;2023-07-02T11:01:26;19.55;;;10.43;;
21943;SDS011;11136;48.778;9.126;2023-07-02T11:04:05;16.90;;;9.80;;
21943;SDS011;11136;48.778;9.126;2023-07-02T11:06:31;15.77;;;10.30;;
21943;SDS011;11136;48.778;9.126;2023-07-02T11:09:00;18.73;;;11.10;;
21943;SDS011;11136;48.778;9.126;2023-07-02T11:11:26;19.27;;;10.45;;
21943;SDS011;11136;48.778;9.126;2023-07-02T11:13:51;16.25;;;10.32;;
21943;SDS011;11136;48.778;9.126;2023-07-02T11:16:23;21.98;;;11.57;;
21943;SDS011;11136;48.778;9.126;2023-07-02T11:18:54;23.30;;;10.50;;
21943;SDS011;11136;48.778;9.126;2023-07-02T11:21:34;17.50;;;10.73;;
21943;SDS011;11136;48.778;9.126;2023-07-02T11:24:01;21.08;;;9.90;;
21943;SDS011;11136;48.778;9.126;2023-07-02T11:26:35;21.55;;;10.77;;
21943;SDS011;11136;48.778;9.126;2023-07-02T11:29:07;16.92;;;10.50;;
21943;SDS011;11136;48.778;9.126;2023-07-02T11:31:36;19.83;;;10.77;;
21943;SDS011;11136;48.778;9.126;2023-07-02T11:34:10;16.45;;;10.50;;
21943;SDS011;11136;48.778;9.126;2023-07-02T11:36:39;18.70;;;10.35;;
21943;SDS011;11136;48.778;9.126;2023-07-02T11:39:05;21.40;;;11.15;;
21943;SDS011;11136;48.778;9.126;2023-07-02T11:41:37;17.38;;;11.07;;
21943;SDS011;11136;48.778;9.126;2023-07-02T11:44:05;16.75;;;10.50;;
21943;SDS011;11136;48.778;9.126;2023-07-02T11:46:31;20.15;;;10.10;;
21943;SDS011;11136;48.778;9.126;2023-07-02T11:48:59;18.58;;;11.43;;
21943;SDS011;11136;48.778;9.126;2023-07-02T11:51:26;16.55;;;9.68;;
21943;SDS011;11136;48.778;9.126;2023-07-02T11:53:51;16.95;;;9.98;;
21943;SDS011;11136;48.778;9.126;2023-07-02T11:56:17;18.65;;;9.82;;
21943;SDS011;11136;48.778;9.126;2023-07-02T11:58:42;16.60;;;10.25;;
21943;SDS011;11136;48.778;9.126;2023-07-02T12:01:09;15.80;;;10.55;;
21943;SDS011;11136;48.778;9.126;2023-07-02T12:03:35;17.92;;;10.77;;
21943;SDS011;11136;48.778;9.126;2023-07-02T12:06:00;16.98;;;10.30;;
21943;SDS011;11136;48.778;9.126;2023-07-02T12:08:26;18.73;;;11.23;;
21943;SDS011;11136;48.778;9.126;2023-07-02T12:10:52;18.67;;;10.52;;
21943;SDS011;11136;48.778;9.126;2023-07-02T12:13:17;16.38;;;10.68;;
21943;SDS011;11136;48.778;9.126;2023-07-02T12:15:43;17.63;;;10.88;;
21943;SDS011;11136;48.778;9.126;2023-07-02T12:18:09;22.77;;;11.27;;
21943;SDS011;11136;48.778;9.126;2023-07-02T12:20:36;19.17;;;10.65;;
21943;SDS011;11136;48.778;9.126;2023-07-02T12:23:03;22.50;;;11.65;;
21943;SDS011;11136;48.778;9.126;2023-07-02T12:25:28;17.40;;;10.85;;
21943;SDS011;11136;48.778;9.126;2023-07-02T12:27:54;16.67;;;10.77;;
21943;SDS011;11136;48.778;9.126;2023-07-02T12:30:20;19.70;;;11.07;;
21943;SDS011;11136;48.778;9.126;2023-07-02T12:32:45;19.15;;;10.82;;
21943;SDS011;11136;48.778;9.126;2023-07-02T12:35:11;17.30;;;11.15;;
21943;SDS011;11136;48.778;9.126;2023-07-02T12:37:46;18.50;;;11.07;;
21943;SDS011;11136;48.778;9.126;2023-07-02T12:40:14;18.08;;;11.80;;
21943;SDS011;11136;48.778;9.126;2023-07-02T12:42:41;19.27;;;10.98;;
21943;SDS011;11136;48.778;9.126;2023-07-02T12:45:08;18.35;;;11.05;;
21943;SDS011;11136;48.778;9.126;2023-07-02T12:47:34;17.52;;;11.23;;
21943;SDS011;11136;48.778;9.126;2023-07-02T12:49:59;19.42;;;11.48;;
21943;SDS011;11136;48.778;9.126;2023-07-02T12:52:25;17.45;;;11.63;;
21943;SDS011;11136;48.778;9.126;2023-07-02T12:54:51;24.58;;;11.70;;
21943;SDS011;11136;48.778;9.126;2023-07-02T12:57:17;18.63;;;10.82;;
21943;SDS011;11136;48.778;9.126;2023-07-02T12:59:43;18.02;;;11.35;;
21943;SDS011;11136;48.778;9.126;2023-07-02T13:02:09;17.60;;;11.50;;
21943;SDS011;11136;48.778;9.126;2023-07-02T13:04:35;18.77;;;11.65;;
21943;SDS011;11136;48.778;9.126;2023-07-02T13:07:01;21.25;;;12.63;;
21943;SDS011;11136;48.778;9.126;2023-07-02T13:09:27;17.13;;;10.95;;
21943;SDS011;11136;48.778;9.126;2023-07-02T13:11:52;17.30;;;10.82;;
21943;SDS011;11136;48.778;9.126;2023-07-02T13:14:18;19.48;;;11.10;;
21943;SDS011;11136;48.778;9.126;2023-07-02T13:16:43;20.08;;;10.52;;
21943;SDS011;11136;48.778;9.126;2023-07-02T13:19:09;17.23;;;10.43;;
21943;SDS011;11136;48.778;9.126;2023-07-02T13:21:36;18.98;;;10.68;;
21943;SDS011;11136;48.778;9.126;2023-07-02T13:24:01;18.15;;;10.80;;
21943;SDS011;11136;48.778;9.126;2023-07-02T13:26:27;17.58;;;10.98;;
21943;SDS011;11136;48.778;9.126;2023-07-02T13:28:53;20.63;;;11.50;;
21943;SDS011;11136;48.778;9.126;2023-07-02T13:31:18;18.67;;;10.73;;
21943;SDS011;11136;48.778;9.126;2023-07-02T13:33:44;18.40;;;11.85;;
21943;SDS011;11136;48.778;9.126;2023-07-02T13:36:11;18.33;;;11.55;;
21943;SDS011;11136;48.778;9.126;2023-07-02T13:38:37;18.27;;;11.20;;
21943;SDS011;11136;48.778;9.126;2023-07-02T13:41:03;17.58;;;11.63;;
21943;SDS011;11136;48.778;9.126;2023-07-02T13:43:29;17.75;;;11.93;;
21943;SDS011;11136;48.778;9.126;2023-07-02T13:45:54;17.08;;;10.15;;
21943;SDS011;11136;48.778;9.126;2023-07-02T13:48:20;20.52;;;10.45;;
21943;SDS011;11136;48.778;9.126;2023-07-02T13:50:46;18.17;;;10.38;;
21943;SDS011;11136;48.778;9.126;2023-07-02T13:53:12;16.23;;;11.60;;
21943;SDS011;11136;48.778;9.126;2023-07-02T13:55:37;17.77;;;10.40;;
21943;SDS011;11136;48.778;9.126;2023-07-02T13:58:03;15.82;;;10.45;;
21943;SDS011;11136;48.778;9.126;2023-07-02T14:00:29;18.33;;;11.23;;
21943;SDS011;11136;48.778;9.126;2023-07-02T14:02:54;21.15;;;11.65;;
21943;SDS011;11136;48.778;9.126;2023-07-02T14:05:20;16.35;;;10.77;;
21943;SDS011;11136;48.778;9.126;2023-07-02T14:07:46;15.55;;;10.27;;
21943;SDS011;11136;48.778;9.126;2023-07-02T14:10:12;19.38;;;10.07;;
21943;SDS011;11136;48.778;9.126;2023-07-02T14:12:38;18.60;;;10.77;;
21943;SDS011;11136;48.778;9.126;2023-07-02T14:15:05;17.35;;;10.85;;
21943;SDS011;11136;48.778;9.126;2023-07-02T14:17:31;18.88;;;10.90;;
21943;SDS011;11136;48.778;9.126;2023-07-02T14:19:57;22.00;;;11.32;;
21943;SDS011;11136;48.778;9.126;2023-07-02T14:22:22;17.02;;;11.32;;
21943;SDS011;11136;48.778;9.126;2023-07-02T14:24:48;15.77;;;10.95;;
21943;SDS011;11136;48.778;9.126;2023-07-02T14:27:14;15.20;;;10.30;;
21943;SDS011;11136;48.778;9.126;2023-07-02T14:29:40;18.30;;;11.43;;
21943;SDS011;11136;48.778;9.126;2023-07-02T14:32:05;15.55;;;11.05;;
21943;SDS011;11136;48.778;9.126;2023-07-02T14:34:32;18.02;;;10.18;;
21943;SDS011;11136;48.778;9.126;2023-07-02T14:36:58;19.45;;;11.90;;
21943;SDS011;11136;48.778;9.126;2023-07-02T14:39:24;15.88;;;11.52;;
21943;SDS011;11136;48.778;9.126;2023-07-02T14:41:49;18.75;;;11.15;;